N42J KCLT-KSAV
Flight info
| Callsign | N42J |
|---|---|
| Flight time | N/A |
| Altitude | 9500 |
| Route | KCLT/18L N0271F260 KNI3 HAMLN DCT CAE DCT CANTR DCT PLZZZ DCT TOSEA DCT TBERT DCT KSAV/19 |
| Aircraft | PC12/L-V/N |
Departure
| Time | 2026-05-04 21:33 |
|---|---|
| Airport | Charlotte Douglas International Airport (KCLT) |
Arrival
| Time | N/A |
|---|---|
| Airport | Savannah Hilton Head International Airport (KSAV) |
| Time | Latitude | Longitude | Altitude | Speed | Heading |
|---|---|---|---|---|---|
| 2026-05-04 21:18 | 35.21093 | -80.93270 | 716 ft | 0 kts | 86° |
| 2026-05-04 21:27 | 35.21094 | -80.93267 | 716 ft | 3 kts | 86° |
| 2026-05-04 21:27 | 35.21099 | -80.93253 | 715 ft | 6 kts | 53° |
| 2026-05-04 21:27 | 35.21123 | -80.93294 | 717 ft | 12 kts | 263° |
| 2026-05-04 21:28 | 35.21148 | -80.93366 | 720 ft | 11 kts | 346° |
| 2026-05-04 21:28 | 35.21251 | -80.93377 | 722 ft | 17 kts | 354° |
| 2026-05-04 21:28 | 35.21370 | -80.93387 | 724 ft | 20 kts | 356° |
| 2026-05-04 21:28 | 35.21401 | -80.93391 | 725 ft | 5 kts | 355° |
| 2026-05-04 21:29 | 35.21478 | -80.93398 | 726 ft | 15 kts | 358° |
| 2026-05-04 21:29 | 35.21612 | -80.93407 | 729 ft | 21 kts | 354° |
| 2026-05-04 21:29 | 35.21764 | -80.93421 | 731 ft | 22 kts | 358° |
| 2026-05-04 21:29 | 35.21899 | -80.93426 | 732 ft | 17 kts | 11° |
| 2026-05-04 21:30 | 35.22046 | -80.93389 | 733 ft | 23 kts | 11° |
| 2026-05-04 21:30 | 35.22197 | -80.93394 | 733 ft | 20 kts | 352° |
| 2026-05-04 21:30 | 35.22319 | -80.93404 | 733 ft | 14 kts | 355° |
| 2026-05-04 21:30 | 35.22446 | -80.93412 | 733 ft | 16 kts | 357° |
| 2026-05-04 21:31 | 35.22509 | -80.93433 | 733 ft | 0 kts | 311° |
| 2026-05-04 21:31 | 35.22516 | -80.93450 | 733 ft | 6 kts | 285° |
| 2026-05-04 21:32 | 35.22513 | -80.93533 | 735 ft | 13 kts | 257° |
| 2026-05-04 21:32 | 35.22455 | -80.93615 | 735 ft | 16 kts | 177° |
| 2026-05-04 21:32 | 35.22431 | -80.93613 | 735 ft | 2 kts | 176° |
| 2026-05-04 21:32 | 35.22179 | -80.93589 | 735 ft | 75 kts | 176° |
| 2026-05-04 21:33 | 35.21458 | -80.93514 | 832 ft | 116 kts | 176° |
| 2026-05-04 21:33 | 35.20601 | -80.93388 | 1159 ft | 134 kts | 172° |
| 2026-05-04 21:33 | 35.19625 | -80.93174 | 1503 ft | 150 kts | 173° |
| 2026-05-04 21:33 | 35.18553 | -80.93002 | 1840 ft | 163 kts | 174° |
| 2026-05-04 21:34 | 35.17375 | -80.92832 | 2182 ft | 175 kts | 175° |
| 2026-05-04 21:34 | 35.16145 | -80.92606 | 2522 ft | 186 kts | 161° |
| 2026-05-04 21:34 | 35.15311 | -80.91412 | 2935 ft | 198 kts | 107° |
| 2026-05-04 21:34 | 35.15370 | -80.89736 | 3325 ft | 206 kts | 80° |
| 2026-05-04 21:35 | 35.15640 | -80.87952 | 3463 ft | 223 kts | 81° |
| 2026-05-04 21:35 | 35.15916 | -80.86040 | 3481 ft | 230 kts | 81° |
| 2026-05-04 21:35 | 35.16202 | -80.84091 | 3484 ft | 236 kts | 81° |
| 2026-05-04 21:35 | 35.16492 | -80.82101 | 3480 ft | 240 kts | 81° |
| 2026-05-04 21:36 | 35.16791 | -80.80065 | 3478 ft | 244 kts | 81° |
| 2026-05-04 21:36 | 35.17083 | -80.78026 | 3477 ft | 246 kts | 83° |
| 2026-05-04 21:36 | 35.16797 | -80.76027 | 3467 ft | 240 kts | 120° |
| 2026-05-04 21:36 | 35.15894 | -80.74308 | 3483 ft | 240 kts | 127° |
| 2026-05-04 21:37 | 35.14924 | -80.72631 | 3486 ft | 241 kts | 127° |
| 2026-05-04 21:37 | 35.13959 | -80.70979 | 3488 ft | 242 kts | 127° |
| 2026-05-04 21:37 | 35.12967 | -80.69285 | 3488 ft | 243 kts | 127° |
| 2026-05-04 21:37 | 35.11979 | -80.67609 | 3486 ft | 244 kts | 127° |
| 2026-05-04 21:38 | 35.10944 | -80.65966 | 3461 ft | 243 kts | 138° |
| 2026-05-04 21:38 | 35.09508 | -80.64979 | 3477 ft | 238 kts | 156° |
| 2026-05-04 21:38 | 35.07978 | -80.64179 | 3485 ft | 238 kts | 158° |
| 2026-05-04 21:38 | 35.06439 | -80.63395 | 3484 ft | 239 kts | 159° |
| 2026-05-04 21:39 | 35.04916 | -80.62615 | 3487 ft | 239 kts | 158° |
| 2026-05-04 21:39 | 35.03382 | -80.61830 | 3487 ft | 239 kts | 159° |
| 2026-05-04 21:39 | 35.01833 | -80.61037 | 3486 ft | 239 kts | 159° |
| 2026-05-04 21:39 | 35.00303 | -80.60255 | 3485 ft | 239 kts | 159° |
| 2026-05-04 21:40 | 34.98770 | -80.59473 | 3484 ft | 240 kts | 159° |
| 2026-05-04 21:40 | 34.97207 | -80.58751 | 3459 ft | 238 kts | 169° |
| 2026-05-04 21:40 | 34.95605 | -80.58993 | 3475 ft | 234 kts | 198° |
| 2026-05-04 21:40 | 34.94082 | -80.59653 | 3666 ft | 227 kts | 200° |
| 2026-05-04 21:41 | 34.92596 | -80.60321 | 3988 ft | 224 kts | 200° |
| 2026-05-04 21:41 | 34.91146 | -80.60978 | 4320 ft | 221 kts | 200° |
| 2026-05-04 21:41 | 34.89707 | -80.61630 | 4655 ft | 219 kts | 200° |
| 2026-05-04 21:41 | 34.88296 | -80.62270 | 4988 ft | 218 kts | 200° |
| 2026-05-04 21:42 | 34.86862 | -80.62920 | 5324 ft | 217 kts | 200° |
| 2026-05-04 21:42 | 34.85452 | -80.63560 | 5653 ft | 216 kts | 200° |
| 2026-05-04 21:42 | 34.84049 | -80.64195 | 5970 ft | 216 kts | 200° |
| 2026-05-04 21:42 | 34.82632 | -80.64838 | 6317 ft | 216 kts | 200° |
| 2026-05-04 21:43 | 34.81229 | -80.65472 | 6654 ft | 216 kts | 200° |
| 2026-05-04 21:43 | 34.79823 | -80.66109 | 6990 ft | 217 kts | 201° |
| 2026-05-04 21:43 | 34.78395 | -80.66754 | 7332 ft | 217 kts | 201° |
| 2026-05-04 21:43 | 34.76977 | -80.67396 | 7676 ft | 218 kts | 201° |
| 2026-05-04 21:44 | 34.75549 | -80.68043 | 8012 ft | 218 kts | 202° |
| 2026-05-04 21:44 | 34.74139 | -80.68682 | 8340 ft | 218 kts | 202° |
| 2026-05-04 21:44 | 34.72669 | -80.69350 | 8461 ft | 228 kts | 202° |
| 2026-05-04 21:44 | 34.71150 | -80.70042 | 8587 ft | 235 kts | 202° |
| 2026-05-04 21:45 | 34.69608 | -80.70746 | 8772 ft | 239 kts | 202° |
| 2026-05-04 21:45 | 34.68056 | -80.71452 | 8967 ft | 241 kts | 202° |
| 2026-05-04 21:45 | 34.66464 | -80.72178 | 9152 ft | 243 kts | 202° |
| 2026-05-04 21:45 | 34.64887 | -80.72897 | 9353 ft | 244 kts | 202° |
| 2026-05-04 21:46 | 34.63273 | -80.73633 | 9467 ft | 249 kts | 202° |
| 2026-05-04 21:46 | 34.61626 | -80.74385 | 9481 ft | 257 kts | 202° |
| 2026-05-04 21:46 | 34.59938 | -80.75157 | 9486 ft | 263 kts | 202° |
| 2026-05-04 21:46 | 34.58212 | -80.75947 | 9490 ft | 268 kts | 202° |
| 2026-05-04 21:47 | 34.56440 | -80.76758 | 9484 ft | 273 kts | 202° |
| 2026-05-04 21:47 | 34.54638 | -80.77583 | 9476 ft | 276 kts | 202° |
| 2026-05-04 21:47 | 34.52847 | -80.78397 | 9476 ft | 279 kts | 201° |
| 2026-05-04 21:47 | 34.50952 | -80.78964 | 9484 ft | 282 kts | 191° |
| 2026-05-04 21:48 | 34.48964 | -80.79198 | 9483 ft | 286 kts | 184° |
| 2026-05-04 21:48 | 34.46978 | -80.79207 | 9478 ft | 288 kts | 179° |
| 2026-05-04 21:48 | 34.44971 | -80.79073 | 9483 ft | 289 kts | 177° |
| 2026-05-04 21:48 | 34.42961 | -80.78849 | 9483 ft | 289 kts | 175° |
| 2026-05-04 21:49 | 34.40964 | -80.78571 | 9487 ft | 290 kts | 174° |
| 2026-05-04 21:49 | 34.38963 | -80.78261 | 9483 ft | 290 kts | 174° |
| 2026-05-04 21:49 | 34.36949 | -80.77929 | 9482 ft | 290 kts | 173° |
| 2026-05-04 21:49 | 34.34945 | -80.77659 | 9446 ft | 289 kts | 183° |
| 2026-05-04 21:50 | 34.33077 | -80.78379 | 9460 ft | 282 kts | 212° |
| 2026-05-04 21:50 | 34.31402 | -80.79626 | 9487 ft | 282 kts | 212° |
| 2026-05-04 21:50 | 34.29710 | -80.80800 | 9494 ft | 282 kts | 210° |
| 2026-05-04 21:50 | 34.27961 | -80.81916 | 9491 ft | 282 kts | 208° |
| 2026-05-04 21:51 | 34.26198 | -80.82980 | 9490 ft | 283 kts | 207° |
| 2026-05-04 21:51 | 34.24403 | -80.84026 | 9479 ft | 283 kts | 206° |
| 2026-05-04 21:51 | 34.22630 | -80.85034 | 9482 ft | 284 kts | 206° |